Time;durP1;ratioP1;P1;durP2;ratioP2;P2;SDS_P1;SDS_P2;PMS_P1;PMS_P2;Temp;Humidity;BMP_temperature;BMP_pressure;BME280_temperature;BME280_humidity;BME280_pressure;Samples;Min_cycle;Max_cycle;Signal;HPM_P1;HPM_P2
2024/04/10 00:02:11;;;;;;;20.73;1.90;;;11.10;1.00;;;;;;5388390;26;20649;-81
2024/04/10 00:04:37;;;;;;;16.20;2.20;;;11.00;1.00;;;;;;5419723;26;20253;-81
2024/04/10 00:07:03;;;;;;;17.02;1.95;;;11.00;1.00;;;;;;5388143;26;20226;-81
2024/04/10 00:09:29;;;;;;;17.75;1.95;;;11.00;1.00;;;;;;5419388;26;20748;-82
2024/04/10 00:11:54;;;;;;;18.33;2.30;;;11.00;1.00;;;;;;5419332;26;20245;-81
2024/04/10 00:14:20;;;;;;;17.90;2.20;;;11.00;1.00;;;;;;5388240;26;20242;-81
2024/04/10 00:16:45;;;;;;;22.00;1.67;;;11.00;1.00;;;;;;5419607;26;20210;-81
2024/04/10 00:19:11;;;;;;;16.73;1.90;;;10.90;1.00;;;;;;5388038;26;20214;-81
2024/04/10 00:21:37;;;;;;;15.93;2.03;;;10.90;1.00;;;;;;5419375;26;20792;-80
2024/04/10 00:24:02;;;;;;;14.40;1.73;;;10.90;1.00;;;;;;5419800;26;20206;-81
2024/04/10 00:26:28;;;;;;;16.73;1.43;;;10.90;1.00;;;;;;5419752;26;20291;-80
2024/04/10 00:28:54;;;;;;;20.00;2.90;;;10.90;1.00;;;;;;5388019;26;20218;-82
2024/04/10 00:31:20;;;;;;;19.07;1.90;;;10.80;1.00;;;;;;5387867;26;20514;-82
2024/04/10 00:33:46;;;;;;;20.20;2.40;;;10.80;1.00;;;;;;5387087;26;20451;-82
2024/04/10 00:36:11;;;;;;;21.57;1.97;;;10.80;1.00;;;;;;5387608;26;20226;-82
2024/04/10 00:38:37;;;;;;;15.33;1.40;;;10.80;1.00;;;;;;5419001;26;20214;-81
2024/04/10 00:41:05;;;;;;;18.23;3.13;;;10.80;1.00;;;;;;5387601;26;20256;-81
2024/04/10 00:43:31;;;;;;;25.58;2.15;;;10.80;1.00;;;;;;5387590;26;20240;-82
2024/04/10 00:46:10;;;;;;;20.27;2.35;;;10.80;1.00;;;;;;5387641;26;20218;-81
2024/04/10 00:48:40;;;;;;;20.08;2.20;;;10.80;1.00;;;;;;5418810;26;20197;-81
2024/04/10 00:51:12;;;;;;;20.73;2.40;;;10.80;1.00;;;;;;5387383;26;20218;-81
2024/04/10 00:53:39;;;;;;;17.50;3.17;;;10.80;1.00;;;;;;5388072;26;20269;-81
2024/04/10 00:56:05;;;;;;;13.50;2.05;;;10.80;1.00;;;;;;5418884;26;20222;-81
2024/04/10 00:58:34;;;;;;;16.60;1.73;;;10.80;1.00;;;;;;5418703;26;20241;-81
2024/04/10 01:01:01;;;;;;;17.73;1.80;;;10.80;1.00;;;;;;5387557;26;20543;-80
2024/04/10 01:03:27;;;;;;;17.10;1.75;;;10.70;1.00;;;;;;5418519;26;20551;-81
2024/04/10 01:06:01;;;;;;;17.33;1.90;;;10.80;1.00;;;;;;5387961;26;20553;-81
2024/04/10 01:08:33;;;;;;;15.07;1.75;;;10.80;1.00;;;;;;5418939;26;20218;-81
2024/04/10 01:11:00;;;;;;;17.15;1.88;;;10.80;1.00;;;;;;5418475;26;20298;-81
2024/04/10 01:13:27;;;;;;;16.95;3.00;;;10.80;1.00;;;;;;5418715;26;20270;-81
2024/04/10 01:15:52;;;;;;;15.25;1.45;;;10.70;1.00;;;;;;5386881;26;20218;-82
2024/04/10 01:18:18;;;;;;;14.17;1.73;;;10.70;1.00;;;;;;5418365;26;20253;-81
2024/04/10 01:20:45;;;;;;;23.70;2.40;;;10.70;1.00;;;;;;5418527;26;20436;-81
2024/04/10 01:23:10;;;;;;;16.27;1.55;;;10.60;1.00;;;;;;5418006;26;20558;-81
2024/04/10 01:25:36;;;;;;;14.80;1.80;;;10.70;1.00;;;;;;5417796;26;20214;-81
2024/04/10 01:28:02;;;;;;;22.73;2.57;;;10.70;1.00;;;;;;5386536;26;20214;-82
2024/04/10 01:30:27;;;;;;;20.87;2.20;;;10.60;1.00;;;;;;5418100;26;20210;-82
2024/04/10 01:32:53;;;;;;;18.10;1.80;;;10.50;1.00;;;;;;5417972;26;20348;-82
2024/04/10 01:35:19;;;;;;;19.40;2.90;;;10.60;1.00;;;;;;5386706;26;20214;-81
2024/04/10 01:37:44;;;;;;;20.20;2.50;;;10.60;1.00;;;;;;5386887;26;20279;-82
2024/04/10 01:40:10;;;;;;;15.33;2.07;;;10.60;1.00;;;;;;5417723;26;20210;-82
2024/04/10 01:42:36;;;;;;;14.68;1.83;;;10.40;1.00;;;;;;5418035;26;20510;-81
2024/04/10 01:45:03;;;;;;;17.40;1.97;;;10.40;1.00;;;;;;5418051;26;20211;-82
2024/04/10 01:47:29;;;;;;;22.52;1.80;;;10.30;3.80;;;;;;5389406;26;20229;-81
2024/04/10 01:49:55;;;;;;;18.50;2.10;;;10.30;6.20;;;;;;5421639;26;20206;-82
2024/04/10 01:52:21;;;;;;;19.60;1.93;;;10.30;4.20;;;;;;5421315;26;20821;-81
2024/04/10 01:54:46;;;;;;;23.47;2.57;;;10.30;4.60;;;;;;5421766;26;20270;-82
2024/04/10 01:57:12;;;;;;;18.70;1.83;;;10.20;4.30;;;;;;5389931;26;20210;-82
2024/04/10 01:59:38;;;;;;;21.47;2.00;;;10.20;6.30;;;;;;5421163;26;20853;-82
2024/04/10 02:02:04;;;;;;;20.10;2.17;;;10.20;7.30;;;;;;5389654;26;20559;-81
2024/04/10 02:04:29;;;;;;;19.80;1.83;;;10.20;6.10;;;;;;5389907;26;20237;-82
2024/04/10 02:06:55;;;;;;;17.87;1.73;;;10.20;10.20;;;;;;5420828;26;20210;-81
2024/04/10 02:09:21;;;;;;;20.93;1.73;;;10.10;13.50;;;;;;5389898;26;20218;-81
2024/04/10 02:11:47;;;;;;;20.30;2.60;;;10.20;12.90;;;;;;5420891;26;20574;-81
2024/04/10 02:14:12;;;;;;;15.47;1.70;;;10.10;13.30;;;;;;5420906;26;20668;-81
2024/04/10 02:16:40;;;;;;;16.43;1.43;;;10.10;11.90;;;;;;5389202;26;20625;-81
2024/04/10 02:19:06;;;;;;;18.08;2.08;;;10.10;16.70;;;;;;5421339;26;20436;-81
2024/04/10 02:21:32;;;;;;;16.37;2.40;;;10.10;13.20;;;;;;5420828;26;20575;-82
2024/04/10 02:23:57;;;;;;;17.67;2.17;;;10.00;16.10;;;;;;5389499;26;20237;-81
2024/04/10 02:26:23;;;;;;;22.63;2.20;;;10.00;20.00;;;;;;5389563;26;20563;-82
2024/04/10 02:28:49;;;;;;;16.70;2.00;;;10.00;16.50;;;;;;5420790;26;20226;-81
2024/04/10 02:31:17;;;;;;;17.10;2.03;;;10.10;14.80;;;;;;5420671;26;20206;-81
2024/04/10 02:33:43;;;;;;;17.35;2.17;;;9.90;22.20;;;;;;5420985;26;20277;-81
2024/04/10 02:36:09;;;;;;;21.00;2.50;;;9.90;24.60;;;;;;5420971;26;20245;-81
2024/04/10 02:38:35;;;;;;;17.50;2.43;;;9.90;25.70;;;;;;5420902;26;20892;-82
2024/04/10 02:41:02;;;;;;;17.40;1.90;;;9.90;22.90;;;;;;5420827;26;20218;-81
2024/04/10 02:43:28;;;;;;;17.27;2.10;;;9.80;26.80;;;;;;5420781;26;20256;-82
2024/04/10 02:45:55;;;;;;;21.40;1.57;;;9.80;32.50;;;;;;5420550;26;20214;-82
2024/04/10 02:48:21;;;;;;;17.48;1.40;;;9.70;31.60;;;;;;5389183;26;20232;-81
2024/04/10 02:50:47;;;;;;;24.88;1.92;;;9.80;31.60;;;;;;5389087;26;20781;-81
2024/04/10 02:53:13;;;;;;;17.67;1.87;;;9.70;38.60;;;;;;5420678;26;20227;-82
2024/04/10 02:55:43;;;;;;;15.95;1.55;;;9.70;37.40;;;;;;5420424;26;20531;-81
2024/04/10 02:58:10;;;;;;;15.32;1.58;;;9.60;45.30;;;;;;5419681;26;20211;-82
2024/04/10 03:00:44;;;;;;;17.50;1.58;;;9.60;47.30;;;;;;5388948;26;20299;-82
2024/04/10 03:03:09;;;;;;;25.08;2.35;;;9.60;47.70;;;;;;5389177;26;20234;-81
2024/04/10 03:05:35;;;;;;;18.17;2.27;;;9.60;45.80;;;;;;5388743;26;20591;-82
2024/04/10 03:08:01;;;;;;;23.93;1.67;;;9.60;43.80;;;;;;5465921;21;20492;-83
2024/04/10 03:10:26;;;;;;;20.47;2.20;;;9.60;47.10;;;;;;5391861;26;20533;-83
2024/04/10 03:12:52;;;;;;;16.93;2.20;;;9.60;40.10;;;;;;5422597;26;20214;-83
2024/04/10 03:15:18;;;;;;;17.37;1.73;;;9.60;43.80;;;;;;5422782;26;20214;-83
2024/04/10 03:17:46;;;;;;;22.53;1.83;;;9.50;44.10;;;;;;5422931;26;20202;-83
2024/04/10 03:20:12;;;;;;;16.08;1.40;;;9.40;51.40;;;;;;5423111;26;20219;-83
2024/04/10 03:22:39;;;;;;;18.20;2.03;;;9.30;60.00;;;;;;5422739;26;20719;-83
2024/04/10 03:25:05;;;;;;;22.75;2.20;;;9.30;65.50;;;;;;5391894;26;20581;-83
2024/04/10 03:27:31;;;;;;;17.55;1.67;;;9.40;59.20;;;;;;5422752;26;20322;-84
2024/04/10 03:29:57;;;;;;;20.03;2.33;;;9.40;56.30;;;;;;5423372;26;20214;-83
2024/04/10 03:32:23;;;;;;;16.30;1.73;;;9.40;55.10;;;;;;5422900;26;20495;-83
2024/04/10 03:34:49;;;;;;;21.10;2.30;;;9.30;58.50;;;;;;5391764;26;20214;-83
2024/04/10 03:37:14;;;;;;;20.70;1.60;;;9.40;57.40;;;;;;5391622;26;20227;-83
2024/04/10 03:39:41;;;;;;;21.33;2.00;;;9.40;55.20;;;;;;5422585;26;20283;-83
2024/04/10 03:42:07;;;;;;;19.02;2.13;;;9.40;53.30;;;;;;5391245;26;20222;-83
2024/04/10 03:44:35;;;;;;;19.25;1.83;;;9.30;57.60;;;;;;5422433;26;20202;-83
2024/04/10 03:47:02;;;;;;;17.77;1.50;;;9.30;61.60;;;;;;5391260;26;20679;-83
2024/04/10 03:49:28;;;;;;;15.45;1.75;;;9.40;52.80;;;;;;5422918;26;20202;-83
2024/04/10 03:51:54;;;;;;;14.30;1.30;;;9.30;54.50;;;;;;5391102;26;20755;-83
2024/04/10 03:54:20;;;;;;;21.97;2.20;;;9.30;59.40;;;;;;5422603;26;20248;-83
2024/04/10 03:56:45;;;;;;;15.50;1.50;;;9.20;58.70;;;;;;5391131;26;20207;-83
2024/04/10 03:59:11;;;;;;;17.40;2.00;;;9.30;57.20;;;;;;5422191;26;20479;-83
2024/04/10 04:01:37;;;;;;;20.97;2.73;;;9.30;57.20;;;;;;5390832;26;20244;-83
2024/04/10 04:04:03;;;;;;;17.27;1.90;;;9.20;59.10;;;;;;5422559;26;20202;-83
2024/04/10 04:06:30;;;;;;;22.77;1.85;;;9.20;62.90;;;;;;5422393;26;20253;-83
2024/04/10 04:08:56;;;;;;;18.77;1.65;;;9.10;65.30;;;;;;5421612;26;20257;-83
2024/04/10 04:11:22;;;;;;;18.70;2.42;;;9.00;67.10;;;;;;5391252;26;20222;-83
2024/04/10 04:13:48;;;;;;;22.93;2.60;;;9.10;70.40;;;;;;5422322;26;20202;-83
2024/04/10 04:16:14;;;;;;;16.80;2.30;;;9.10;64.90;;;;;;5391499;26;20540;-83
2024/04/10 04:18:42;;;;;;;15.70;2.10;;;9.10;65.80;;;;;;5422985;26;20210;-83
2024/04/10 04:21:08;;;;;;;22.02;2.75;;;9.10;67.90;;;;;;5422505;26;20490;-84
2024/04/10 04:23:35;;;;;;;19.17;4.13;;;9.00;71.20;;;;;;5422504;26;20257;-83
2024/04/10 04:26:00;;;;;;;16.77;1.95;;;9.00;71.50;;;;;;5390812;26;20227;-83
2024/04/10 04:29:37;;;;;;;17.77;1.98;;;9.00;70.10;;;;;;5513687;25;20560;-83
2024/04/10 04:32:04;;;;;;;26.40;2.80;;;9.00;73.10;;;;;;5513435;26;20299;-83
2024/04/10 04:34:29;;;;;;;15.77;1.95;;;9.00;77.50;;;;;;5513983;25;20241;-83
2024/04/10 04:36:55;;;;;;;18.23;2.23;;;9.00;71.60;;;;;;5513831;25;20587;-83
2024/04/10 04:39:20;;;;;;;18.23;1.73;;;9.00;35.90;;;;;;5513392;25;20549;-83
2024/04/10 04:41:46;;;;;;;23.43;2.50;;;9.00;34.70;;;;;;5513593;25;20215;-83
2024/04/10 04:44:12;;;;;;;17.60;1.90;;;9.00;32.20;;;;;;5513725;25;20572;-83
2024/04/10 04:46:37;;;;;;;20.37;2.23;;;9.00;35.20;;;;;;5513565;25;20255;-83
2024/04/10 04:49:03;;;;;;;41.97;2.13;;;9.00;37.90;;;;;;5513416;25;20204;-83
2024/04/10 04:51:29;;;;;;;18.20;1.70;;;9.00;40.40;;;;;;5513093;25;20215;-83
2024/04/10 04:53:54;;;;;;;23.53;1.90;;;9.00;37.80;;;;;;5511212;25;20223;-83
2024/04/10 04:56:20;;;;;;;30.07;2.07;;;8.80;47.10;;;;;;5513008;25;20250;-83
2024/04/10 04:58:46;;;;;;;17.20;2.50;;;8.80;54.70;;;;;;5513142;25;20235;-83
2024/04/10 05:01:11;;;;;;;18.13;2.00;;;8.90;52.70;;;;;;5511702;26;20207;-83
2024/04/10 05:06:21;;;;;;;16.38;2.58;;;8.70;61.20;;;;;;5514333;26;20242;-83
2024/04/10 05:08:48;;;;;;;16.80;2.13;;;8.70;59.10;;;;;;5512289;25;20204;-83
2024/04/10 05:11:14;;;;;;;17.50;2.05;;;8.60;65.40;;;;;;5512827;25;20250;-83
2024/04/10 05:13:43;;;;;;;20.13;1.63;;;8.60;67.50;;;;;;5513317;25;20204;-83
2024/04/10 05:16:10;;;;;;;21.33;2.17;;;8.60;68.50;;;;;;5512899;25;20204;-83
2024/04/10 05:18:36;;;;;;;19.58;2.28;;;8.60;71.80;;;;;;5512558;25;20204;-83
2024/04/10 05:21:03;;;;;;;16.70;1.95;;;8.60;71.50;;;;;;5510677;25;20216;-84
2024/04/10 05:23:28;;;;;;;15.90;1.92;;;8.60;74.20;;;;;;5510774;26;20228;-83
2024/04/10 05:26:01;;;;;;;18.70;2.40;;;8.60;76.00;;;;;;5512683;25;20207;-83
2024/04/10 05:28:27;;;;;;;24.48;2.85;;;8.60;77.80;;;;;;5512474;25;20256;-83
2024/04/10 05:31:03;;;;;;;35.85;5.07;;;8.50;79.00;;;;;;5510461;25;20216;-82
2024/04/10 05:33:28;;;;;;;15.45;1.65;;;8.50;87.40;;;;;;5512912;25;20184;-82
2024/04/10 05:36:02;;;;;;;24.80;2.20;;;8.60;85.20;;;;;;5512068;25;20308;-83
2024/04/10 05:38:29;;;;;;;16.33;3.00;;;8.70;85.40;;;;;;5510259;26;20215;-82
2024/04/10 05:40:56;;;;;;;19.30;2.15;;;8.80;77.50;;;;;;5463792;26;20228;-83
2024/04/10 05:43:22;;;;;;;16.17;1.92;;;8.90;76.60;;;;;;5495708;26;20220;-83
2024/04/10 05:45:55;;;;;;;21.70;2.20;;;9.00;68.20;;;;;;5496159;26;20254;-82
2024/04/10 05:48:21;;;;;;;14.02;1.50;;;9.00;71.50;;;;;;5494171;26;20306;-83
2024/04/10 05:50:47;;;;;;;15.20;2.40;;;9.00;71.50;;;;;;5494710;26;20247;-82
2024/04/10 05:53:13;;;;;;;18.50;2.20;;;9.00;72.60;;;;;;5494141;26;20252;-82
2024/04/10 05:55:38;;;;;;;18.43;2.03;;;9.10;69.00;;;;;;5494196;26;20717;-83
2024/04/10 05:58:04;;;;;;;16.97;2.70;;;9.20;60.80;;;;;;5496123;26;20276;-82
2024/04/10 06:00:31;;;;;;;34.23;2.70;;;9.30;55.30;;;;;;5496125;26;20260;-83
2024/04/10 06:02:57;;;;;;;16.20;1.70;;;9.30;53.20;;;;;;5496106;26;20488;-82
2024/04/10 06:05:24;;;;;;;21.10;2.00;;;9.30;51.20;;;;;;5496427;26;20208;-83
2024/04/10 06:07:50;;;;;;;25.77;2.55;;;9.50;48.10;;;;;;5494530;26;20258;-82
2024/04/10 06:10:19;;;;;;;18.97;2.60;;;9.50;47.70;;;;;;5493369;26;20216;-83
2024/04/10 06:12:51;;;;;;;29.88;2.55;;;9.40;49.20;;;;;;5495279;26;20251;-83
2024/04/10 06:15:17;;;;;;;22.75;2.17;;;9.50;48.50;;;;;;5494050;26;20564;-83
2024/04/10 06:17:42;;;;;;;19.15;2.00;;;9.60;43.50;;;;;;5493475;26;20250;-83
2024/04/10 06:20:11;;;;;;;21.50;2.00;;;9.60;44.40;;;;;;5495368;26;20224;-83
2024/04/10 06:22:37;;;;;;;18.15;1.90;;;9.70;37.00;;;;;;5495104;26;20232;-82
2024/04/10 06:25:03;;;;;;;19.92;2.47;;;9.80;31.80;;;;;;5495164;26;20209;-83
2024/04/10 06:27:29;;;;;;;15.97;1.67;;;9.80;32.40;;;;;;5495761;26;20555;-82
2024/04/10 06:29:55;;;;;;;21.13;2.17;;;9.80;37.40;;;;;;5494604;26;20382;-83
2024/04/10 06:32:23;;;;;;;14.90;1.90;;;9.90;32.70;;;;;;5495089;26;20228;-82
2024/04/10 06:34:49;;;;;;;20.20;2.78;;;10.00;27.10;;;;;;5495464;26;20204;-83
2024/04/10 06:37:15;;;;;;;20.17;1.87;;;10.10;23.80;;;;;;5495402;26;20765;-82
2024/04/10 06:39:41;;;;;;;25.83;3.57;;;10.10;22.10;;;;;;5492610;26;20250;-82
2024/04/10 06:42:07;;;;;;;23.13;2.90;;;10.10;18.90;;;;;;5494342;26;20501;-83
2024/04/10 06:44:32;;;;;;;19.40;2.20;;;10.10;22.50;;;;;;5494747;26;20695;-83
2024/04/10 06:46:58;;;;;;;17.63;1.93;;;10.10;21.70;;;;;;5493135;26;20216;-82
2024/04/10 06:49:27;;;;;;;17.83;1.70;;;10.20;11.50;;;;;;5494319;26;20323;-84
2024/04/10 06:51:53;;;;;;;19.38;2.25;;;10.30;16.50;;;;;;5493739;26;20472;-83
2024/04/10 06:54:20;;;;;;;16.60;2.23;;;10.20;15.90;;;;;;5494018;26;20212;-82
2024/04/10 06:56:47;;;;;;;20.38;3.30;;;10.30;13.50;;;;;;5493644;26;20864;-83
2024/04/10 06:59:13;;;;;;;20.70;2.72;;;10.30;17.30;;;;;;5495496;26;20262;-82
2024/04/10 07:01:39;;;;;;;16.55;2.35;;;10.40;13.10;;;;;;5493969;26;20234;-82
2024/04/10 07:04:05;;;;;;;21.13;2.28;;;10.50;7.50;;;;;;5495294;26;20267;-82
2024/04/10 07:06:30;;;;;;;22.60;2.30;;;10.50;1.00;;;;;;5495222;26;20260;-82
2024/04/10 07:08:57;;;;;;;19.80;2.20;;;10.50;1.00;;;;;;5493729;26;20597;-82
2024/04/10 07:11:22;;;;;;;19.55;2.45;;;10.50;1.00;;;;;;5495316;26;20246;-82
2024/04/10 07:13:53;;;;;;;20.10;3.07;;;10.60;1.00;;;;;;5493996;26;20217;-82
2024/04/10 07:16:20;;;;;;;17.77;2.13;;;10.60;1.00;;;;;;5494255;26;20220;-82
2024/04/10 07:18:46;;;;;;;16.90;1.90;;;10.60;1.00;;;;;;5495819;26;20217;-82
2024/04/10 07:21:14;;;;;;;17.10;2.53;;;10.70;1.00;;;;;;5495205;26;20208;-83
2024/04/10 07:23:41;;;;;;;16.80;2.05;;;10.70;1.00;;;;;;5496367;26;20272;-83
2024/04/10 07:26:12;;;;;;;20.33;3.60;;;10.80;1.00;;;;;;5493654;26;20220;-82
2024/04/10 07:28:58;;;;;;;17.65;2.55;;;10.90;1.00;;;;;;5491483;26;20240;-82
2024/04/10 07:31:31;;;;;;;21.45;2.78;;;11.00;1.00;;;;;;5493168;26;20219;-82
2024/04/10 07:33:57;;;;;;;20.33;2.35;;;11.10;1.00;;;;;;5494206;26;20212;-82
2024/04/10 07:36:24;;;;;;;17.45;2.40;;;11.10;1.00;;;;;;5491809;26;20216;-83
2024/04/10 07:38:52;;;;;;;16.95;3.25;;;11.20;1.00;;;;;;5495378;26;20577;-82
2024/04/10 07:41:18;;;;;;;15.43;2.35;;;11.20;1.00;;;;;;5495943;26;20243;-82
2024/04/10 07:43:44;;;;;;;17.20;2.47;;;11.30;1.00;;;;;;5494114;26;20463;-82
2024/04/10 07:46:11;;;;;;;18.50;2.08;;;11.40;1.00;;;;;;5494700;26;20208;-82
2024/04/10 07:48:42;;;;;;;17.05;2.60;;;11.40;1.00;;;;;;5496261;26;20215;-83
2024/04/10 07:51:09;;;;;;;24.05;2.65;;;11.40;1.00;;;;;;5496171;26;20220;-83
2024/04/10 07:53:39;;;;;;;14.90;2.20;;;11.40;1.00;;;;;;5495734;26;20220;-82
2024/04/10 07:56:07;;;;;;;18.10;2.70;;;11.50;1.00;;;;;;5494992;26;20603;-82
2024/04/10 07:58:33;;;;;;;20.23;2.15;;;11.70;1.00;;;;;;5494384;26;20338;-82
2024/04/10 08:01:00;;;;;;;20.92;3.17;;;11.70;1.00;;;;;;5493540;26;20220;-83
2024/04/10 08:03:28;;;;;;;16.23;2.15;;;11.80;1.00;;;;;;5492668;26;20337;-82
2024/04/10 08:05:54;;;;;;;15.70;2.30;;;11.90;1.00;;;;;;5495399;26;20260;-82
2024/04/10 08:08:20;;;;;;;22.33;2.67;;;11.80;1.00;;;;;;5495814;26;20333;-83
2024/04/10 08:10:47;;;;;;;19.37;2.43;;;11.90;1.00;;;;;;5493543;26;20553;-82
2024/04/10 08:13:13;;;;;;;17.90;2.22;;;11.90;1.00;;;;;;5494940;26;20309;-82
2024/04/10 08:15:39;;;;;;;20.75;2.47;;;12.00;1.00;;;;;;5494711;26;20467;-82
2024/04/10 08:18:05;;;;;;;23.40;2.50;;;12.10;1.00;;;;;;5493759;26;20223;-83
2024/04/10 08:20:31;;;;;;;16.95;2.55;;;12.10;1.00;;;;;;5492983;26;20776;-82
2024/04/10 08:22:58;;;;;;;18.70;2.72;;;12.10;1.00;;;;;;5495030;26;20219;-82
2024/04/10 08:25:24;;;;;;;21.33;3.05;;;12.10;1.00;;;;;;5493451;26;20212;-83
2024/04/10 08:27:50;;;;;;;18.23;2.50;;;12.10;1.00;;;;;;5463206;26;20224;-82
2024/04/10 08:30:15;;;;;;;22.67;3.13;;;12.10;1.00;;;;;;5493406;26;20251;-82
2024/04/10 08:32:41;;;;;;;16.13;2.10;;;12.10;1.00;;;;;;5495054;26;20216;-82
2024/04/10 08:35:08;;;;;;;18.13;2.83;;;12.20;1.00;;;;;;5492293;26;20219;-82
2024/04/10 08:37:34;;;;;;;21.13;2.05;;;12.40;1.00;;;;;;5492293;26;20227;-82
2024/04/10 08:39:59;;;;;;;23.90;2.63;;;12.50;1.00;;;;;;5494045;26;20209;-82
2024/04/10 08:42:27;;;;;;;20.63;2.47;;;12.50;1.00;;;;;;5494220;26;20304;-82
2024/04/10 08:44:54;;;;;;;19.40;2.20;;;12.50;1.00;;;;;;5495004;26;20379;-82
2024/04/10 08:47:23;;;;;;;21.85;2.90;;;12.60;1.00;;;;;;5492654;26;20509;-82
2024/04/10 08:49:49;;;;;;;17.95;2.70;;;12.60;1.00;;;;;;5494338;26;20208;-83
2024/04/10 08:52:16;;;;;;;21.08;2.85;;;12.50;1.00;;;;;;5494912;26;20220;-82
2024/04/10 08:54:44;;;;;;;24.08;2.60;;;12.50;1.00;;;;;;5493593;26;20254;-82
2024/04/10 08:57:09;;;;;;;17.77;3.05;;;12.40;1.00;;;;;;5493076;26;20212;-82
2024/04/10 08:59:35;;;;;;;17.77;2.97;;;12.50;1.00;;;;;;5494803;26;20212;-83
2024/04/10 09:02:01;;;;;;;20.37;2.93;;;12.50;1.00;;;;;;5494459;26;20287;-82
2024/04/10 09:04:27;;;;;;;20.55;2.55;;;12.50;1.00;;;;;;5492207;26;20216;-82
2024/04/10 09:07:03;;;;;;;16.00;2.63;;;12.50;1.00;;;;;;5494625;26;20212;-82
2024/04/10 09:09:29;;;;;;;17.38;3.40;;;12.60;1.00;;;;;;5494727;26;20493;-82
2024/04/10 09:11:55;;;;;;;24.90;3.03;;;12.60;1.00;;;;;;5493540;26;20224;-84
2024/04/10 09:14:20;;;;;;;19.40;2.60;;;12.80;1.00;;;;;;5494298;26;20441;-82
2024/04/10 09:16:46;;;;;;;15.77;1.90;;;13.00;1.00;;;;;;5495331;26;20449;-82
2024/04/10 09:19:18;;;;;;;19.53;3.43;;;13.30;1.00;;;;;;5497210;26;20263;-82
2024/04/10 09:21:54;;;;;;;14.97;2.33;;;13.40;1.00;;;;;;5496039;26;20236;-82
2024/04/10 09:24:27;;;;;;;16.48;2.53;;;13.40;1.00;;;;;;5495721;26;20498;-82
2024/04/10 09:26:54;;;;;;;16.97;2.23;;;13.50;1.00;;;;;;5497840;26;20216;-82
2024/04/10 09:29:29;;;;;;;13.83;1.87;;;13.70;1.00;;;;;;5466431;26;20457;-83
2024/04/10 09:31:58;;;;;;;18.03;2.30;;;13.70;1.00;;;;;;5501467;26;20873;-83
2024/04/10 09:34:25;;;;;;;16.53;2.23;;;13.80;1.00;;;;;;5497769;26;20589;-83
2024/04/10 09:36:51;;;;;;;18.83;2.50;;;13.80;1.00;;;;;;5496493;26;20457;-82
2024/04/10 09:39:22;;;;;;;19.33;2.97;;;13.80;1.00;;;;;;5498086;26;20441;-83
2024/04/10 09:41:55;;;;;;;17.00;2.43;;;13.80;1.00;;;;;;5495804;26;20457;-82
2024/04/10 09:44:23;;;;;;;18.80;2.57;;;13.80;1.00;;;;;;5497793;26;20441;-82
2024/04/10 09:46:58;;;;;;;17.20;2.17;;;13.70;1.00;;;;;;5497871;26;20526;-83
2024/04/10 09:49:48;;;;;;;17.10;2.30;;;13.80;1.00;;;;;;5498748;26;20493;-82
2024/04/10 09:52:15;;;;;;;15.27;2.40;;;13.90;1.00;;;;;;5498818;26;20457;-83
2024/04/10 09:54:42;;;;;;;16.67;2.57;;;13.80;1.00;;;;;;5498738;26;20442;-82
2024/04/10 09:57:13;;;;;;;15.20;1.63;;;13.90;1.00;;;;;;5494449;26;20503;-82
2024/04/10 09:59:42;;;;;;;14.07;1.40;;;13.70;1.00;;;;;;5497299;26;20779;-83
2024/04/10 10:02:14;;;;;;;14.00;1.80;;;13.80;1.00;;;;;;5497292;26;20453;-82
2024/04/10 10:04:40;;;;;;;15.50;1.83;;;13.80;1.00;;;;;;5496005;26;20501;-82
2024/04/10 10:07:10;;;;;;;15.27;2.60;;;13.90;1.00;;;;;;5497568;26;20563;-82
2024/04/10 10:09:36;;;;;;;19.83;2.50;;;14.00;1.00;;;;;;5497107;26;20259;-82
2024/04/10 10:12:01;;;;;;;19.20;2.33;;;13.90;1.00;;;;;;5496604;26;20895;-82
2024/04/10 10:14:30;;;;;;;17.60;1.97;;;13.60;1.00;;;;;;5497055;26;20453;-83
2024/04/10 10:17:07;;;;;;;15.50;1.90;;;13.60;1.00;;;;;;5497853;26;20532;-83
2024/04/10 10:19:35;;;;;;;17.23;2.47;;;13.40;1.00;;;;;;5495895;26;20497;-83
2024/04/10 10:22:01;;;;;;;15.80;2.00;;;13.40;1.00;;;;;;5495628;26;20748;-82
2024/04/10 10:24:29;;;;;;;20.13;1.87;;;13.30;1.00;;;;;;5497181;26;20445;-82
2024/04/10 10:27:02;;;;;;;17.60;2.30;;;13.60;1.00;;;;;;5494824;26;20582;-82
2024/04/10 10:29:30;;;;;;;18.43;2.03;;;14.00;1.00;;;;;;5494117;26;20461;-82
2024/04/10 10:32:07;;;;;;;17.53;2.53;;;14.30;1.00;;;;;;5495774;26;20465;-83
2024/04/10 10:34:35;;;;;;;15.67;2.03;;;14.60;1.00;;;;;;5497071;26;20438;-83
2024/04/10 10:37:10;;;;;;;19.93;2.27;;;14.90;99.90;;;;;;5496909;26;20556;-83
2024/04/10 10:39:42;;;;;;;19.20;2.30;;;15.40;99.90;;;;;;5495576;26;20481;-82
2024/04/10 10:42:08;;;;;;;19.47;2.97;;;15.60;99.90;;;;;;5494718;26;20549;-82
2024/04/10 10:44:34;;;;;;;13.30;1.93;;;15.50;99.90;;;;;;5495391;26;20456;-83
2024/04/10 10:47:07;;;;;;;15.93;2.50;;;15.20;99.90;;;;;;5497012;26;20337;-82
2024/04/10 10:49:33;;;;;;;23.23;2.20;;;15.10;99.90;;;;;;5495024;26;20449;-82
2024/04/10 10:51:59;;;;;;;14.80;1.47;;;14.90;99.90;;;;;;5496702;26;21537;-82
2024/04/10 10:54:25;;;;;;;14.33;1.93;;;14.90;99.90;;;;;;5495561;26;20526;-82
2024/04/10 10:56:50;;;;;;;18.00;1.80;;;15.10;99.90;;;;;;5495541;26;20453;-83
2024/04/10 10:59:16;;;;;;;17.53;2.60;;;15.40;99.90;;;;;;5496329;26;20447;-82
2024/04/10 11:01:42;;;;;;;14.60;1.90;;;15.70;99.90;;;;;;5495838;26;20223;-82
2024/04/10 11:04:14;;;;;;;16.50;2.17;;;16.00;99.90;;;;;;5494735;26;20217;-84
2024/04/10 11:06:40;;;;;;;14.87;2.00;;;16.20;99.90;;;;;;5495635;26;20263;-83
2024/04/10 11:09:18;;;;;;;13.87;1.60;;;16.40;99.90;;;;;;5495703;26;20989;-82
2024/04/10 11:12:10;;;;;;;15.70;2.00;;;16.70;99.90;;;;;;5496017;26;20450;-82
2024/04/10 11:14:36;;;;;;;14.43;1.90;;;16.80;99.90;;;;;;5490957;26;20446;-82
2024/04/10 11:17:04;;;;;;;21.33;1.80;;;17.10;99.90;;;;;;5495558;26;20489;-83
2024/04/10 11:19:33;;;;;;;13.93;2.30;;;17.20;99.90;;;;;;5494252;26;20244;-82
2024/04/10 11:21:59;;;;;;;15.10;1.93;;;17.40;99.90;;;;;;5494149;26;20513;-82
2024/04/10 11:24:25;;;;;;;13.70;1.53;;;17.20;99.90;;;;;;5495660;26;20861;-82
2024/04/10 11:26:53;;;;;;;16.93;1.80;;;17.20;99.90;;;;;;5495409;26;20447;-83
2024/04/10 11:29:19;;;;;;;15.60;2.53;;;17.30;99.90;;;;;;5494066;26;20286;-83
2024/04/10 11:31:45;;;;;;;16.43;2.40;;;17.50;99.90;;;;;;5496210;26;20465;-83
2024/04/10 11:34:12;;;;;;;13.77;2.03;;;17.60;99.90;;;;;;5496193;26;20262;-83
2024/04/10 11:36:38;;;;;;;23.83;2.10;;;18.00;99.90;;;;;;5495819;26;20588;-83
2024/04/10 11:39:11;;;;;;;14.33;1.70;;;18.20;99.90;;;;;;5495927;26;20509;-82
2024/04/10 11:41:37;;;;;;;17.97;2.03;;;17.90;99.90;;;;;;5493601;26;20289;-83
2024/04/10 11:44:02;;;;;;;13.00;1.83;;;17.60;99.90;;;;;;5493536;26;20461;-83
2024/04/10 11:46:28;;;;;;;17.70;1.90;;;17.40;99.90;;;;;;5493839;26;20208;-83
2024/04/10 11:48:56;;;;;;;21.23;1.60;;;17.40;99.90;;;;;;5492631;26;20437;-82
2024/04/10 11:51:22;;;;;;;16.33;1.90;;;17.30;99.90;;;;;;5494740;26;20272;-83
2024/04/10 11:53:48;;;;;;;16.53;1.93;;;17.10;99.90;;;;;;5495072;26;20437;-82
2024/04/10 11:56:13;;;;;;;15.73;1.87;;;16.80;99.90;;;;;;5494834;26;20211;-83
2024/04/10 11:58:40;;;;;;;16.70;1.97;;;16.60;99.90;;;;;;5494522;26;20763;-84
2024/04/10 12:01:06;;;;;;;16.13;2.83;;;16.20;99.90;;;;;;5493120;26;20812;-83
2024/04/10 12:03:31;;;;;;;14.23;1.90;;;16.00;99.90;;;;;;5494810;26;20436;-83
2024/04/10 12:06:04;;;;;;;16.73;2.23;;;15.90;99.90;;;;;;5493979;26;20262;-82
2024/04/10 12:08:30;;;;;;;16.70;2.57;;;15.90;99.90;;;;;;5494383;26;20219;-83
2024/04/10 12:10:55;;;;;;;17.20;1.70;;;16.20;99.90;;;;;;5493549;26;20566;-83
2024/04/10 12:13:21;;;;;;;17.87;1.90;;;16.60;99.90;;;;;;5495443;26;20463;-83
2024/04/10 12:15:47;;;;;;;13.17;1.47;;;17.00;99.90;;;;;;5494747;26;20219;-83
2024/04/10 12:18:12;;;;;;;11.67;1.20;;;17.30;99.90;;;;;;5462325;26;20258;-83
2024/04/10 12:20:38;;;;;;;20.13;1.50;;;17.60;99.90;;;;;;5493626;26;20220;-83
2024/04/10 12:23:04;;;;;;;13.90;2.20;;;17.40;99.90;;;;;;5492233;26;20236;-84
2024/04/10 12:25:30;;;;;;;16.57;2.00;;;17.20;99.90;;;;;;5494750;26;20904;-83
2024/04/10 12:27:59;;;;;;;15.60;1.80;;;16.90;99.90;;;;;;5495213;26;20254;-83
2024/04/10 12:30:25;;;;;;;12.57;1.47;;;16.80;99.90;;;;;;5493006;26;20452;-83
2024/04/10 12:32:50;;;;;;;13.13;1.57;;;16.70;99.90;;;;;;5495631;26;20505;-83
2024/04/10 12:38:03;;;;;;;19.53;1.90;;;16.40;99.90;;;;;;5494607;26;20261;-83
2024/04/10 12:40:29;;;;;;;13.30;1.77;;;16.10;99.90;;;;;;5494327;26;20448;-83
2024/04/10 12:42:55;;;;;;;14.60;1.80;;;16.10;99.90;;;;;;5492583;26;20512;-83
2024/04/10 12:45:21;;;;;;;13.80;1.73;;;16.40;99.90;;;;;;5494380;26;20440;-82
2024/04/10 12:47:48;;;;;;;16.53;1.90;;;16.70;99.90;;;;;;5494771;26;20256;-82
2024/04/10 12:50:14;;;;;;;13.37;1.67;;;16.90;99.90;;;;;;5495435;26;20464;-82
2024/04/10 12:52:40;;;;;;;14.87;1.80;;;17.30;99.90;;;;;;5497802;26;20563;-82